createdAt,value
2022-10-04T00:02:34.381Z,18.00
2022-10-04T00:05:25.253Z,38.20
2022-10-04T00:08:44.023Z,15.90
2022-10-04T00:11:35.599Z,7.40
2022-10-04T00:14:28.376Z,9.30
2022-10-04T00:17:24.065Z,6.70
2022-10-04T00:20:51.091Z,8.50
2022-10-04T00:23:37.863Z,8.50
2022-10-04T00:26:24.655Z,9.10
2022-10-04T00:29:31.487Z,4.80
2022-10-04T00:32:27.838Z,9.20
2022-10-04T00:35:26.980Z,8.30
2022-10-04T00:38:26.482Z,5.60
2022-10-04T00:41:14.728Z,10.20
2022-10-04T00:44:05.673Z,11.70
2022-10-04T00:46:55.925Z,18.60
2022-10-04T00:49:46.359Z,10.30
2022-10-04T00:52:37.087Z,6.90
2022-10-04T00:55:36.446Z,5.60
2022-10-04T00:58:29.446Z,3.60
2022-10-04T01:05:35.335Z,4.70
2022-10-04T01:09:11.048Z,1.70
2022-10-04T01:12:47.239Z,4.00
2022-10-04T01:16:27.103Z,5.00
2022-10-04T01:20:03.174Z,5.40
2022-10-04T01:23:48.027Z,4.00
2022-10-04T01:27:20.156Z,7.40
2022-10-04T01:30:44.017Z,5.00
2022-10-04T01:34:17.246Z,2.90
2022-10-04T01:38:36.937Z,7.90
2022-10-04T01:46:56.481Z,4.30
2022-10-04T01:50:58.079Z,6.80
2022-10-04T01:54:58.116Z,3.90
2022-10-04T01:59:15.759Z,1.80
2022-10-04T02:03:13.029Z,7.60
2022-10-04T02:07:12.889Z,7.10
2022-10-04T02:11:13.397Z,7.90
2022-10-04T02:15:14.222Z,6.50
2022-10-04T02:19:10.076Z,6.20
2022-10-04T02:23:07.899Z,10.40
2022-10-04T02:26:43.965Z,5.30
2022-10-04T02:30:22.893Z,5.10
2022-10-04T02:33:52.113Z,2.20
2022-10-04T02:37:28.923Z,6.40
2022-10-04T02:41:09.959Z,4.70
2022-10-04T02:48:20.029Z,6.80
2022-10-04T02:52:21.682Z,4.50
2022-10-04T03:00:14.565Z,5.30
2022-10-04T03:04:09.324Z,3.80
2022-10-04T03:08:06.264Z,2.00
2022-10-04T03:12:01.310Z,5.50
2022-10-04T03:16:02.117Z,10.10
2022-10-04T03:24:25.819Z,6.40
2022-10-04T03:28:17.717Z,7.60
2022-10-04T03:32:09.495Z,2.20
2022-10-04T03:36:09.361Z,7.90
2022-10-04T03:40:05.326Z,3.10
2022-10-04T03:44:04.747Z,5.60
2022-10-04T03:48:07.114Z,10.80
2022-10-04T03:52:03.926Z,6.00
2022-10-04T03:56:04.235Z,4.50
2022-10-04T04:00:01.621Z,4.40
2022-10-04T04:03:57.540Z,13.90
2022-10-04T04:07:56.275Z,3.00
2022-10-04T04:11:52.299Z,2.80
2022-10-04T04:15:48.034Z,4.40
2022-10-04T04:19:53.126Z,4.70
2022-10-04T04:23:53.724Z,7.40
2022-10-04T04:27:50.843Z,3.20
2022-10-04T04:31:46.678Z,3.20
2022-10-04T04:35:42.583Z,12.20
2022-10-04T04:39:56.270Z,2.00
2022-10-04T04:44:11.568Z,20.00
2022-10-04T04:48:07.282Z,12.90
2022-10-04T04:52:01.167Z,8.50
2022-10-04T04:56:01.773Z,3.30
2022-10-04T04:59:29.140Z,5.50
2022-10-04T05:03:01.026Z,10.40
2022-10-04T05:06:33.016Z,7.60
2022-10-04T05:10:05.190Z,7.30
2022-10-04T05:13:37.048Z,5.20
2022-10-04T05:16:59.179Z,11.50
2022-10-04T05:20:31.117Z,16.20
2022-10-04T05:24:03.145Z,17.80
2022-10-04T05:27:39.084Z,9.50
2022-10-04T05:31:11.146Z,16.80
2022-10-04T05:34:43.136Z,12.40
2022-10-04T05:38:19.128Z,15.90
2022-10-04T05:42:18.477Z,15.20
2022-10-04T05:46:14.416Z,16.30
2022-10-04T05:49:50.277Z,16.60
2022-10-04T05:53:26.360Z,11.40
2022-10-04T05:56:58.309Z,15.50
2022-10-04T06:00:54.663Z,5.80
2022-10-04T06:04:54.084Z,10.40
2022-10-04T06:08:50.128Z,16.80
2022-10-04T06:12:47.827Z,8.80
2022-10-04T06:16:34.881Z,3.90
2022-10-04T06:20:06.759Z,10.00
2022-10-04T06:23:42.797Z,10.30
2022-10-04T06:27:15.807Z,9.30
2022-10-04T06:30:56.875Z,4.70
2022-10-04T06:34:32.725Z,7.90
2022-10-04T06:38:05.829Z,7.30
2022-10-04T06:41:34.768Z,7.90
2022-10-04T06:45:16.764Z,5.80
2022-10-04T06:48:56.729Z,4.10
2022-10-04T06:52:32.827Z,4.00
2022-10-04T06:56:07.711Z,4.80
2022-10-04T06:59:44.839Z,7.70
2022-10-04T07:03:17.704Z,2.20
2022-10-04T07:07:15.659Z,7.10
2022-10-04T07:11:13.398Z,4.00
2022-10-04T07:15:10.352Z,9.60
2022-10-04T07:19:09.889Z,3.70
2022-10-04T07:23:06.165Z,3.80
2022-10-04T07:27:02.679Z,10.50
2022-10-04T07:31:02.557Z,2.40
2022-10-04T07:34:59.309Z,29.50
2022-10-04T07:39:18.268Z,12.30
2022-10-04T07:43:15.974Z,5.50
2022-10-04T07:47:12.056Z,4.70
2022-10-04T07:51:12.679Z,9.70
2022-10-04T07:55:08.727Z,11.50
2022-10-04T07:59:05.487Z,16.20
2022-10-04T08:03:20.841Z,18.30
2022-10-04T08:07:20.200Z,121.00
2022-10-04T08:11:17.290Z,107.80
2022-10-04T08:15:20.898Z,30.40
2022-10-04T08:19:24.406Z,26.00
2022-10-04T08:23:27.054Z,25.20
2022-10-04T08:27:23.000Z,11.10
2022-10-04T08:30:54.938Z,5.80
2022-10-04T08:34:31.973Z,12.30
2022-10-04T08:38:01.974Z,6.90
2022-10-04T08:42:03.776Z,6.20
2022-10-04T08:45:53.799Z,9.00
2022-10-04T08:49:32.805Z,9.90
2022-10-04T08:53:10.917Z,7.80
2022-10-04T08:56:54.805Z,4.80
2022-10-04T09:00:34.684Z,3.90
2022-10-04T09:04:17.805Z,4.40
2022-10-04T09:08:13.521Z,5.10
2022-10-04T09:11:52.649Z,5.90
2022-10-04T09:15:22.528Z,7.20
2022-10-04T09:18:54.537Z,15.50
2022-10-04T09:23:06.149Z,9.20
2022-10-04T09:26:39.038Z,8.90
2022-10-04T09:30:28.935Z,4.50
2022-10-04T09:34:06.419Z,4.10
2022-10-04T09:37:48.919Z,2.90
2022-10-04T09:41:20.006Z,4.10
2022-10-04T09:44:51.991Z,5.20
2022-10-04T09:48:24.020Z,4.20
2022-10-04T09:52:19.907Z,6.10
2022-10-04T09:55:52.012Z,6.50
2022-10-04T09:59:37.879Z,5.40
2022-10-04T10:03:28.912Z,5.70
2022-10-04T10:07:01.814Z,5.00
2022-10-04T10:10:47.977Z,4.90
2022-10-04T10:14:22.987Z,3.70
2022-10-04T10:18:22.235Z,5.50
2022-10-04T10:21:54.450Z,3.80
2022-10-04T10:25:32.230Z,3.20
2022-10-04T10:29:14.457Z,2.00
2022-10-04T10:33:28.132Z,1.50
2022-10-04T10:37:07.243Z,1.00
2022-10-04T10:40:56.090Z,3.20
2022-10-04T10:44:41.328Z,2.50
2022-10-04T10:48:17.079Z,6.70
2022-10-04T10:51:53.289Z,4.90
2022-10-04T10:55:35.123Z,4.70
2022-10-04T10:59:09.227Z,3.90
2022-10-04T11:02:53.212Z,4.40
2022-10-04T11:06:32.197Z,3.00
2022-10-04T11:09:56.112Z,3.60
2022-10-04T11:13:33.218Z,4.50
2022-10-04T11:17:13.179Z,3.70
2022-10-04T11:20:49.259Z,4.20
2022-10-04T11:24:26.118Z,6.10
2022-10-04T11:28:07.295Z,8.70
2022-10-04T11:32:23.098Z,5.00
2022-10-04T11:36:05.261Z,6.00
2022-10-04T11:39:47.122Z,4.50
2022-10-04T11:43:30.289Z,2.70
2022-10-04T11:47:10.163Z,4.80
2022-10-04T11:50:53.221Z,4.00
2022-10-04T11:54:33.117Z,4.70
2022-10-04T11:58:09.755Z,2.60
2022-10-04T12:01:54.090Z,1.40
2022-10-04T12:05:47.236Z,7.50
2022-10-04T12:09:27.090Z,4.00
2022-10-04T12:13:15.298Z,3.40
2022-10-04T12:16:48.434Z,4.30
2022-10-04T12:20:41.219Z,9.60
2022-10-04T12:24:27.069Z,3.00
2022-10-04T12:28:19.284Z,4.30
2022-10-04T12:31:58.102Z,9.00
2022-10-04T12:35:43.347Z,8.60
2022-10-04T12:39:19.143Z,6.80
2022-10-04T12:42:50.227Z,3.00
2022-10-04T12:46:41.096Z,5.70
2022-10-04T12:50:12.241Z,4.40
2022-10-04T12:54:01.074Z,6.70
2022-10-04T12:57:39.325Z,3.80
2022-10-04T13:01:06.112Z,3.90
2022-10-04T13:04:32.392Z,3.50
2022-10-04T13:08:22.062Z,1.50
2022-10-04T13:11:55.220Z,1.30
2022-10-04T13:19:22.092Z,4.80
2022-10-04T13:22:57.713Z,2.30
2022-10-04T13:26:28.096Z,1.90
2022-10-04T13:29:37.929Z,4.50
2022-10-04T13:33:15.115Z,3.10
2022-10-04T13:36:52.206Z,2.50
2022-10-04T13:40:49.068Z,3.40
2022-10-04T13:44:22.246Z,3.30
2022-10-04T13:48:21.615Z,5.30
2022-10-04T13:52:11.251Z,2.30
2022-10-04T13:55:48.049Z,3.10
2022-10-04T13:59:22.287Z,1.80
2022-10-04T14:03:16.101Z,3.80
2022-10-04T14:06:52.284Z,7.90
2022-10-04T14:10:56.062Z,2.40
2022-10-04T14:14:33.249Z,5.30
2022-10-04T14:18:13.113Z,3.40
2022-10-04T14:21:53.201Z,3.70
2022-10-04T14:25:27.060Z,5.90
2022-10-04T14:29:01.254Z,4.40
2022-10-04T14:32:32.052Z,4.90
2022-10-04T14:36:15.180Z,8.80
2022-10-04T14:39:52.028Z,12.10
2022-10-04T14:43:31.201Z,8.20
2022-10-04T14:47:11.064Z,3.30
2022-10-04T14:51:03.251Z,5.20
2022-10-04T14:54:44.112Z,5.50
2022-10-04T14:58:24.166Z,2.30
2022-10-04T15:01:56.203Z,3.00
2022-10-04T15:05:52.124Z,8.30
2022-10-04T15:09:28.190Z,4.80
2022-10-04T15:13:10.487Z,6.80
2022-10-04T15:16:48.530Z,13.20
2022-10-04T15:20:26.094Z,14.30
2022-10-04T15:24:03.175Z,16.20
2022-10-04T15:27:50.050Z,15.50
2022-10-04T15:31:24.217Z,16.80
2022-10-04T15:35:23.076Z,16.30
2022-10-04T15:39:00.207Z,25.70
2022-10-04T15:42:42.077Z,32.40
2022-10-04T15:46:34.136Z,25.80
2022-10-04T15:50:27.067Z,12.60
2022-10-04T15:53:57.158Z,7.40
2022-10-04T15:57:31.067Z,3.70
2022-10-04T16:01:20.315Z,65.40
2022-10-04T16:05:09.044Z,22.60
2022-10-04T16:08:40.149Z,25.50
2022-10-04T16:12:23.086Z,16.60
2022-10-04T16:16:03.209Z,9.40
2022-10-04T16:19:32.127Z,6.60
2022-10-04T16:23:03.234Z,8.60
2022-10-04T16:26:36.051Z,7.40
2022-10-04T16:30:26.509Z,7.10
2022-10-04T16:34:08.189Z,7.60
2022-10-04T16:37:20.010Z,10.80
2022-10-04T16:40:27.267Z,35.80
2022-10-04T16:43:20.995Z,75.30
2022-10-04T16:46:46.750Z,71.60
2022-10-04T16:49:48.100Z,44.00
2022-10-04T16:53:33.930Z,70.10
2022-10-04T16:56:22.058Z,51.20
2022-10-04T16:59:13.139Z,49.40
2022-10-04T17:02:37.179Z,33.60
2022-10-04T17:05:54.907Z,21.80
2022-10-04T17:08:53.973Z,19.90
2022-10-04T17:11:46.946Z,18.60
2022-10-04T17:14:50.136Z,11.00
2022-10-04T17:17:46.870Z,11.00
2022-10-04T17:20:46.969Z,20.20
2022-10-04T17:23:45.990Z,12.90
2022-10-04T17:26:41.799Z,10.30
2022-10-04T17:30:02.439Z,10.90
2022-10-04T17:32:55.811Z,13.50
2022-10-04T17:36:19.507Z,13.20
2022-10-04T17:39:50.738Z,19.60
2022-10-04T17:42:52.718Z,18.70
2022-10-04T17:45:50.118Z,17.00
2022-10-04T17:49:34.280Z,16.80
2022-10-04T17:52:50.503Z,19.40
2022-10-04T17:55:53.764Z,33.20
2022-10-04T17:58:59.472Z,19.10
2022-10-04T18:02:17.946Z,32.10
2022-10-04T18:05:18.595Z,39.40
2022-10-04T18:08:18.331Z,36.70
2022-10-04T18:11:23.132Z,49.10
2022-10-04T18:14:38.167Z,39.10
2022-10-04T18:17:48.654Z,32.00
2022-10-04T18:20:41.075Z,30.70
2022-10-04T18:23:30.988Z,25.70
2022-10-04T18:26:18.700Z,24.30
2022-10-04T18:29:09.005Z,25.80
2022-10-04T18:32:00.964Z,31.40
2022-10-04T18:34:54.744Z,25.80
2022-10-04T18:37:42.007Z,23.40
2022-10-04T18:40:45.917Z,22.20
2022-10-04T18:43:42.077Z,39.20
2022-10-04T18:46:38.924Z,17.30
2022-10-04T18:49:32.510Z,20.40
2022-10-04T18:52:29.331Z,16.40
2022-10-04T18:55:46.128Z,17.90
2022-10-04T18:59:12.635Z,16.90
2022-10-04T19:02:18.999Z,18.20
2022-10-04T19:05:27.245Z,19.20
2022-10-04T19:08:31.708Z,21.30
2022-10-04T19:11:40.338Z,17.70
2022-10-04T19:15:00.291Z,15.80
2022-10-04T19:18:24.578Z,16.40
2022-10-04T19:21:29.193Z,19.50
2022-10-04T19:24:38.676Z,17.60
2022-10-04T19:28:09.501Z,16.60
2022-10-04T19:31:21.600Z,11.20
2022-10-04T19:34:55.665Z,17.30
2022-10-04T19:37:55.888Z,12.50
2022-10-04T19:41:44.267Z,19.10
2022-10-04T19:45:23.026Z,23.80
2022-10-04T19:48:54.140Z,16.90
2022-10-04T19:52:24.974Z,25.50
2022-10-04T19:56:08.116Z,26.10
2022-10-04T19:59:41.978Z,18.20
2022-10-04T20:03:12.183Z,25.60
2022-10-04T20:06:50.979Z,30.70
2022-10-04T20:10:52.236Z,32.80
2022-10-04T20:14:28.967Z,28.00
2022-10-04T20:18:03.150Z,34.60
2022-10-04T20:21:33.956Z,23.10
2022-10-04T20:25:07.101Z,32.50
2022-10-04T20:28:37.024Z,32.10
2022-10-04T20:32:07.322Z,28.40
2022-10-04T20:35:38.963Z,32.50
2022-10-04T20:39:28.096Z,28.70
2022-10-04T20:43:11.004Z,34.50
2022-10-04T20:46:40.160Z,31.10
2022-10-04T20:50:18.935Z,27.30
2022-10-04T20:53:53.161Z,26.60
2022-10-04T20:57:12.838Z,27.00
2022-10-04T21:00:40.186Z,28.60
2022-10-04T21:03:57.002Z,22.40
2022-10-04T21:07:31.214Z,17.40
2022-10-04T21:10:46.983Z,30.70
2022-10-04T21:14:18.112Z,37.40
2022-10-04T21:17:58.001Z,21.20
2022-10-04T21:21:29.320Z,29.00
2022-10-04T21:25:04.980Z,37.70
2022-10-04T21:28:38.147Z,27.50
2022-10-04T21:32:09.011Z,24.00
2022-10-04T21:35:51.114Z,31.30
2022-10-04T21:39:27.038Z,24.20
2022-10-04T21:42:58.055Z,24.20
2022-10-04T21:46:29.029Z,29.60
2022-10-04T21:50:00.057Z,21.60
2022-10-04T21:53:31.012Z,28.00
2022-10-04T21:57:00.093Z,18.80
2022-10-04T22:00:12.214Z,27.70
2022-10-04T22:03:30.400Z,27.60
2022-10-04T22:06:57.484Z,23.80
2022-10-04T22:10:05.740Z,24.40
2022-10-04T22:13:21.965Z,27.10
2022-10-04T22:16:53.111Z,24.70
2022-10-04T22:20:23.966Z,30.30
2022-10-04T22:24:11.266Z,21.00
2022-10-04T22:27:45.977Z,24.50
2022-10-04T22:31:13.240Z,24.70
2022-10-04T22:34:29.973Z,24.50
2022-10-04T22:38:14.228Z,29.50
2022-10-04T22:41:44.964Z,20.80
2022-10-04T22:45:16.083Z,30.50
2022-10-04T22:48:50.973Z,29.80
2022-10-04T22:52:22.084Z,26.70
2022-10-04T22:55:52.025Z,43.40
2022-10-04T22:59:23.075Z,30.90
2022-10-04T23:02:53.986Z,27.70
2022-10-04T23:06:25.116Z,36.10
2022-10-04T23:09:54.972Z,30.10
2022-10-04T23:13:25.159Z,29.60
2022-10-04T23:16:55.961Z,29.50
2022-10-04T23:20:30.059Z,23.20
2022-10-04T23:24:05.949Z,24.30
2022-10-04T23:27:37.092Z,21.80
2022-10-04T23:31:09.017Z,29.20
2022-10-04T23:34:40.035Z,28.00
2022-10-04T23:38:11.944Z,30.20
2022-10-04T23:41:53.021Z,28.00
2022-10-04T23:45:12.427Z,28.10
2022-10-04T23:48:43.081Z,28.40
2022-10-04T23:52:16.934Z,26.30
2022-10-04T23:55:51.068Z,25.70
2022-10-04T23:59:24.946Z,36.40
